<?xml version="1.0" encoding="UTF-8" standalone="no" ?>
<gpx xmlns="http://www.topografix.com/GPX/1/1" xmlns:xsi="http://www.w3.org/2001/XMLSchema-instance" xsi:schemaLocation="http://www.topografix.com/GPX/1/1 http://www.topografix.com/GPX/1/1/gpx.xsd" version="1.1" creator="VisuGPX - https://www.visugpx.com">
  <metadata>
    <name>ARQUES LA SEYNE SUR MER 1497 KM</name>
    <desc><![CDATA[Rando de Arques dans le Pas de Calais jusque La Seyne sur Mer dans le Var, 1497 km]]></desc>
  </metadata>
  <trk>
    <name><![CDATA[4-Maroeuil Bapaume 34.7 km]]></name>
    <extensions>
      <line xmlns="http://www.topografix.com/GPX/gpx_style/0/2">
        <color>00FFFF</color>
        <width>4</width>
      </line>
    </extensions>
    <trkseg>
      <trkpt lat="50.32891" lon="2.7064">
        <ele>94</ele>
        <time>2021-10-05T16:29:27+02:00</time>
      </trkpt>
      <trkpt lat="50.32803" lon="2.70651">
        <ele>90</ele>
        <time>2021-10-05T16:29:32+02:00</time>
      </trkpt>
      <trkpt lat="50.32541" lon="2.70536">
        <ele>78</ele>
        <time>2021-10-05T16:29:37+02:00</time>
      </trkpt>
      <trkpt lat="50.32478" lon="2.70465">
        <ele>73</ele>
        <time>2021-10-05T16:29:42+02:00</time>
      </trkpt>
      <trkpt lat="50.32415" lon="2.70651">
        <ele>73</ele>
        <time>2021-10-05T16:29:47+02:00</time>
      </trkpt>
      <trkpt lat="50.32249" lon="2.70506">
        <ele>66</ele>
        <time>2021-10-05T16:29:52+02:00</time>
      </trkpt>
      <trkpt lat="50.32198" lon="2.70665">
        <ele>64</ele>
        <time>2021-10-05T16:29:57+02:00</time>
      </trkpt>
      <trkpt lat="50.3207" lon="2.707">
        <ele>66</ele>
        <time>2021-10-05T16:30:02+02:00</time>
      </trkpt>
      <trkpt lat="50.3197" lon="2.70618">
        <ele>66</ele>
        <time>2021-10-05T16:30:07+02:00</time>
      </trkpt>
      <trkpt lat="50.31841" lon="2.70645">
        <ele>67</ele>
        <time>2021-10-05T16:30:12+02:00</time>
      </trkpt>
      <trkpt lat="50.31786" lon="2.70766">
        <ele>65</ele>
        <time>2021-10-05T16:30:17+02:00</time>
      </trkpt>
      <trkpt lat="50.31718" lon="2.70698">
        <ele>66</ele>
        <time>2021-10-05T16:30:22+02:00</time>
      </trkpt>
      <trkpt lat="50.31617" lon="2.70879">
        <ele>65</ele>
        <time>2021-10-05T16:30:27+02:00</time>
      </trkpt>
      <trkpt lat="50.31557" lon="2.70939">
        <ele>65</ele>
        <time>2021-10-05T16:30:32+02:00</time>
      </trkpt>
      <trkpt lat="50.31429" lon="2.71227">
        <ele>65</ele>
        <time>2021-10-05T16:30:37+02:00</time>
      </trkpt>
      <trkpt lat="50.31352" lon="2.71531">
        <ele>62</ele>
        <time>2021-10-05T16:30:42+02:00</time>
      </trkpt>
      <trkpt lat="50.31254" lon="2.71679">
        <ele>62</ele>
        <time>2021-10-05T16:30:47+02:00</time>
      </trkpt>
      <trkpt lat="50.31215" lon="2.71566">
        <ele>61</ele>
        <time>2021-10-05T16:30:52+02:00</time>
      </trkpt>
      <trkpt lat="50.31059" lon="2.715">
        <ele>61</ele>
        <time>2021-10-05T16:30:57+02:00</time>
      </trkpt>
      <trkpt lat="50.30959" lon="2.71576">
        <ele>63</ele>
        <time>2021-10-05T16:31:02+02:00</time>
      </trkpt>
      <trkpt lat="50.30857" lon="2.7181">
        <ele>62</ele>
        <time>2021-10-05T16:31:07+02:00</time>
      </trkpt>
      <trkpt lat="50.30801" lon="2.72004">
        <ele>63</ele>
        <time>2021-10-05T16:31:12+02:00</time>
      </trkpt>
      <trkpt lat="50.30705" lon="2.7292">
        <ele>81</ele>
        <time>2021-10-05T16:31:17+02:00</time>
      </trkpt>
      <trkpt lat="50.30588" lon="2.73454">
        <ele>84</ele>
        <time>2021-10-05T16:31:22+02:00</time>
      </trkpt>
      <trkpt lat="50.30564" lon="2.74046">
        <ele>76</ele>
        <time>2021-10-05T16:31:27+02:00</time>
      </trkpt>
      <trkpt lat="50.3052" lon="2.74189">
        <ele>68</ele>
        <time>2021-10-05T16:31:32+02:00</time>
      </trkpt>
      <trkpt lat="50.30607" lon="2.7438">
        <ele>62</ele>
        <time>2021-10-05T16:31:37+02:00</time>
      </trkpt>
      <trkpt lat="50.3069" lon="2.74453">
        <ele>60</ele>
        <time>2021-10-05T16:31:42+02:00</time>
      </trkpt>
      <trkpt lat="50.30671" lon="2.74493">
        <ele>58</ele>
        <time>2021-10-05T16:31:47+02:00</time>
      </trkpt>
      <trkpt lat="50.30453" lon="2.74801">
        <ele>62</ele>
        <time>2021-10-05T16:31:52+02:00</time>
      </trkpt>
      <trkpt lat="50.30182" lon="2.75152">
        <ele>58</ele>
        <time>2021-10-05T16:31:57+02:00</time>
      </trkpt>
      <trkpt lat="50.30012" lon="2.75275">
        <ele>58</ele>
        <time>2021-10-05T16:32:02+02:00</time>
      </trkpt>
      <trkpt lat="50.30142" lon="2.75569">
        <ele>59</ele>
        <time>2021-10-05T16:32:07+02:00</time>
      </trkpt>
      <trkpt lat="50.30108" lon="2.757">
        <ele>60</ele>
        <time>2021-10-05T16:32:12+02:00</time>
      </trkpt>
      <trkpt lat="50.30157" lon="2.75873">
        <ele>57</ele>
        <time>2021-10-05T16:32:17+02:00</time>
      </trkpt>
      <trkpt lat="50.30123" lon="2.75973">
        <ele>59</ele>
        <time>2021-10-05T16:32:22+02:00</time>
      </trkpt>
      <trkpt lat="50.30142" lon="2.76124">
        <ele>59</ele>
        <time>2021-10-05T16:32:27+02:00</time>
      </trkpt>
      <trkpt lat="50.30016" lon="2.76167">
        <ele>58</ele>
        <time>2021-10-05T16:32:32+02:00</time>
      </trkpt>
      <trkpt lat="50.2999" lon="2.76231">
        <ele>60</ele>
        <time>2021-10-05T16:32:37+02:00</time>
      </trkpt>
      <trkpt lat="50.29777" lon="2.76268">
        <ele>75</ele>
        <time>2021-10-05T16:32:42+02:00</time>
      </trkpt>
      <trkpt lat="50.29668" lon="2.76274">
        <ele>76</ele>
        <time>2021-10-05T16:32:47+02:00</time>
      </trkpt>
      <trkpt lat="50.29346" lon="2.76689">
        <ele>70</ele>
        <time>2021-10-05T16:32:52+02:00</time>
      </trkpt>
      <trkpt lat="50.29013" lon="2.77313">
        <ele>70</ele>
        <time>2021-10-05T16:32:57+02:00</time>
      </trkpt>
      <trkpt lat="50.28893" lon="2.77604">
        <ele>72</ele>
        <time>2021-10-05T16:33:02+02:00</time>
      </trkpt>
      <trkpt lat="50.28744" lon="2.78028">
        <ele>75</ele>
        <time>2021-10-05T16:33:07+02:00</time>
      </trkpt>
      <trkpt lat="50.28688" lon="2.78032">
        <ele>73</ele>
        <time>2021-10-05T16:33:12+02:00</time>
      </trkpt>
      <trkpt lat="50.28517" lon="2.77811">
        <ele>71</ele>
        <time>2021-10-05T16:33:17+02:00</time>
      </trkpt>
      <trkpt lat="50.2837" lon="2.77941">
        <ele>73</ele>
        <time>2021-10-05T16:33:22+02:00</time>
      </trkpt>
      <trkpt lat="50.28118" lon="2.78072">
        <ele>81</ele>
        <time>2021-10-05T16:33:27+02:00</time>
      </trkpt>
      <trkpt lat="50.27956" lon="2.78169">
        <ele>84</ele>
        <time>2021-10-05T16:33:32+02:00</time>
      </trkpt>
      <trkpt lat="50.27841" lon="2.78175">
        <ele>86</ele>
        <time>2021-10-05T16:33:37+02:00</time>
      </trkpt>
      <trkpt lat="50.27294" lon="2.78396">
        <ele>82</ele>
        <time>2021-10-05T16:33:42+02:00</time>
      </trkpt>
      <trkpt lat="50.26662" lon="2.78506">
        <ele>96</ele>
        <time>2021-10-05T16:33:47+02:00</time>
      </trkpt>
      <trkpt lat="50.26508" lon="2.78433">
        <ele>90</ele>
        <time>2021-10-05T16:33:52+02:00</time>
      </trkpt>
      <trkpt lat="50.26378" lon="2.78413">
        <ele>88</ele>
        <time>2021-10-05T16:33:57+02:00</time>
      </trkpt>
      <trkpt lat="50.25882" lon="2.78717">
        <ele>96</ele>
        <time>2021-10-05T16:34:02+02:00</time>
      </trkpt>
      <trkpt lat="50.25833" lon="2.78653">
        <ele>97</ele>
        <time>2021-10-05T16:34:07+02:00</time>
      </trkpt>
      <trkpt lat="50.2547" lon="2.7865">
        <ele>88</ele>
        <time>2021-10-05T16:34:12+02:00</time>
      </trkpt>
      <trkpt lat="50.25192" lon="2.7863">
        <ele>80</ele>
        <time>2021-10-05T16:34:17+02:00</time>
      </trkpt>
      <trkpt lat="50.24895" lon="2.78616">
        <ele>75</ele>
        <time>2021-10-05T16:34:22+02:00</time>
      </trkpt>
      <trkpt lat="50.24617" lon="2.78707">
        <ele>77</ele>
        <time>2021-10-05T16:34:27+02:00</time>
      </trkpt>
      <trkpt lat="50.24344" lon="2.78717">
        <ele>82</ele>
        <time>2021-10-05T16:34:32+02:00</time>
      </trkpt>
      <trkpt lat="50.24092" lon="2.78777">
        <ele>76</ele>
        <time>2021-10-05T16:34:37+02:00</time>
      </trkpt>
      <trkpt lat="50.23741" lon="2.78723">
        <ele>73</ele>
        <time>2021-10-05T16:34:42+02:00</time>
      </trkpt>
      <trkpt lat="50.236" lon="2.7879">
        <ele>76</ele>
        <time>2021-10-05T16:34:47+02:00</time>
      </trkpt>
      <trkpt lat="50.23504" lon="2.7884">
        <ele>78</ele>
        <time>2021-10-05T16:34:52+02:00</time>
      </trkpt>
      <trkpt lat="50.23156" lon="2.789">
        <ele>84</ele>
        <time>2021-10-05T16:34:57+02:00</time>
      </trkpt>
      <trkpt lat="50.2272" lon="2.78917">
        <ele>95</ele>
        <time>2021-10-05T16:35:02+02:00</time>
      </trkpt>
      <trkpt lat="50.22412" lon="2.78954">
        <ele>87</ele>
        <time>2021-10-05T16:35:07+02:00</time>
      </trkpt>
      <trkpt lat="50.22311" lon="2.79004">
        <ele>83</ele>
        <time>2021-10-05T16:35:12+02:00</time>
      </trkpt>
      <trkpt lat="50.2188" lon="2.79044">
        <ele>81</ele>
        <time>2021-10-05T16:35:17+02:00</time>
      </trkpt>
      <trkpt lat="50.21734" lon="2.78984">
        <ele>87</ele>
        <time>2021-10-05T16:35:22+02:00</time>
      </trkpt>
      <trkpt lat="50.21591" lon="2.79094">
        <ele>88</ele>
        <time>2021-10-05T16:35:27+02:00</time>
      </trkpt>
      <trkpt lat="50.21401" lon="2.79271">
        <ele>82</ele>
        <time>2021-10-05T16:35:32+02:00</time>
      </trkpt>
      <trkpt lat="50.21336" lon="2.79265">
        <ele>78</ele>
        <time>2021-10-05T16:35:37+02:00</time>
      </trkpt>
      <trkpt lat="50.21215" lon="2.79351">
        <ele>75</ele>
        <time>2021-10-05T16:35:42+02:00</time>
      </trkpt>
      <trkpt lat="50.21165" lon="2.79091">
        <ele>76</ele>
        <time>2021-10-05T16:35:47+02:00</time>
      </trkpt>
      <trkpt lat="50.2099" lon="2.79652">
        <ele>77</ele>
        <time>2021-10-05T16:35:52+02:00</time>
      </trkpt>
      <trkpt lat="50.20896" lon="2.7995">
        <ele>83</ele>
        <time>2021-10-05T16:35:57+02:00</time>
      </trkpt>
      <trkpt lat="50.20505" lon="2.80478">
        <ele>83</ele>
        <time>2021-10-05T16:36:02+02:00</time>
      </trkpt>
      <trkpt lat="50.20261" lon="2.80822">
        <ele>75</ele>
        <time>2021-10-05T16:36:07+02:00</time>
      </trkpt>
      <trkpt lat="50.2019" lon="2.81069">
        <ele>76</ele>
        <time>2021-10-05T16:36:12+02:00</time>
      </trkpt>
      <trkpt lat="50.20128" lon="2.81092">
        <ele>77</ele>
        <time>2021-10-05T16:36:17+02:00</time>
      </trkpt>
      <trkpt lat="50.19564" lon="2.8023">
        <ele>79</ele>
        <time>2021-10-05T16:36:22+02:00</time>
      </trkpt>
      <trkpt lat="50.19457" lon="2.80304">
        <ele>83</ele>
        <time>2021-10-05T16:36:27+02:00</time>
      </trkpt>
      <trkpt lat="50.18787" lon="2.80337">
        <ele>101</ele>
        <time>2021-10-05T16:36:32+02:00</time>
      </trkpt>
      <trkpt lat="50.18642" lon="2.80394">
        <ele>102</ele>
        <time>2021-10-05T16:36:37+02:00</time>
      </trkpt>
      <trkpt lat="50.18639" lon="2.80351">
        <ele>103</ele>
        <time>2021-10-05T16:36:42+02:00</time>
      </trkpt>
      <trkpt lat="50.18194" lon="2.80424">
        <ele>105</ele>
        <time>2021-10-05T16:36:47+02:00</time>
      </trkpt>
      <trkpt lat="50.18025" lon="2.80561">
        <ele>106</ele>
        <time>2021-10-05T16:36:52+02:00</time>
      </trkpt>
      <trkpt lat="50.17921" lon="2.80163">
        <ele>107</ele>
        <time>2021-10-05T16:36:57+02:00</time>
      </trkpt>
      <trkpt lat="50.17737" lon="2.8009">
        <ele>108</ele>
        <time>2021-10-05T16:37:02+02:00</time>
      </trkpt>
      <trkpt lat="50.17493" lon="2.7999">
        <ele>103</ele>
        <time>2021-10-05T16:37:07+02:00</time>
      </trkpt>
      <trkpt lat="50.17195" lon="2.7994">
        <ele>102</ele>
        <time>2021-10-05T16:37:12+02:00</time>
      </trkpt>
      <trkpt lat="50.16831" lon="2.79759">
        <ele>106</ele>
        <time>2021-10-05T16:37:17+02:00</time>
      </trkpt>
      <trkpt lat="50.16346" lon="2.79529">
        <ele>106</ele>
        <time>2021-10-05T16:37:22+02:00</time>
      </trkpt>
      <trkpt lat="50.16142" lon="2.79432">
        <ele>113</ele>
        <time>2021-10-05T16:37:27+02:00</time>
      </trkpt>
      <trkpt lat="50.16219" lon="2.79098">
        <ele>109</ele>
        <time>2021-10-05T16:37:32+02:00</time>
      </trkpt>
      <trkpt lat="50.16217" lon="2.78854">
        <ele>109</ele>
        <time>2021-10-05T16:37:37+02:00</time>
      </trkpt>
      <trkpt lat="50.1587" lon="2.79218">
        <ele>119</ele>
        <time>2021-10-05T16:37:42+02:00</time>
      </trkpt>
      <trkpt lat="50.155" lon="2.79472">
        <ele>108</ele>
        <time>2021-10-05T16:37:47+02:00</time>
      </trkpt>
      <trkpt lat="50.15376" lon="2.79519">
        <ele>107</ele>
        <time>2021-10-05T16:37:52+02:00</time>
      </trkpt>
      <trkpt lat="50.15256" lon="2.79736">
        <ele>114</ele>
        <time>2021-10-05T16:37:57+02:00</time>
      </trkpt>
      <trkpt lat="50.15224" lon="2.79702">
        <ele>115</ele>
        <time>2021-10-05T16:38:02+02:00</time>
      </trkpt>
      <trkpt lat="50.15001" lon="2.7992">
        <ele>112</ele>
        <time>2021-10-05T16:38:07+02:00</time>
      </trkpt>
      <trkpt lat="50.14783" lon="2.80033">
        <ele>105</ele>
        <time>2021-10-05T16:38:12+02:00</time>
      </trkpt>
      <trkpt lat="50.14601" lon="2.80277">
        <ele>108</ele>
        <time>2021-10-05T16:38:17+02:00</time>
      </trkpt>
      <trkpt lat="50.14719" lon="2.80484">
        <ele>105</ele>
        <time>2021-10-05T16:38:22+02:00</time>
      </trkpt>
      <trkpt lat="50.14444" lon="2.80895">
        <ele>104</ele>
        <time>2021-10-05T16:38:27+02:00</time>
      </trkpt>
      <trkpt lat="50.14265" lon="2.81209">
        <ele>101</ele>
        <time>2021-10-05T16:38:32+02:00</time>
      </trkpt>
      <trkpt lat="50.13873" lon="2.81988">
        <ele>100</ele>
        <time>2021-10-05T16:38:37+02:00</time>
      </trkpt>
      <trkpt lat="50.13714" lon="2.82182">
        <ele>110</ele>
        <time>2021-10-05T16:38:42+02:00</time>
      </trkpt>
      <trkpt lat="50.13594" lon="2.82415">
        <ele>118</ele>
        <time>2021-10-05T16:38:47+02:00</time>
      </trkpt>
      <trkpt lat="50.1344" lon="2.82542">
        <ele>119</ele>
        <time>2021-10-05T16:38:52+02:00</time>
      </trkpt>
      <trkpt lat="50.13352" lon="2.82643">
        <ele>119</ele>
        <time>2021-10-05T16:38:57+02:00</time>
      </trkpt>
      <trkpt lat="50.13277" lon="2.82686">
        <ele>120</ele>
        <time>2021-10-05T16:39:02+02:00</time>
      </trkpt>
      <trkpt lat="50.13342" lon="2.83281">
        <ele>121</ele>
        <time>2021-10-05T16:39:07+02:00</time>
      </trkpt>
      <trkpt lat="50.13288" lon="2.83324">
        <ele>120</ele>
        <time>2021-10-05T16:39:12+02:00</time>
      </trkpt>
      <trkpt lat="50.13232" lon="2.83331">
        <ele>119</ele>
        <time>2021-10-05T16:39:17+02:00</time>
      </trkpt>
      <trkpt lat="50.13136" lon="2.83318">
        <ele>114</ele>
        <time>2021-10-05T16:39:22+02:00</time>
      </trkpt>
      <trkpt lat="50.1302" lon="2.83341">
        <ele>109</ele>
        <time>2021-10-05T16:39:27+02:00</time>
      </trkpt>
      <trkpt lat="50.12898" lon="2.83201">
        <ele>103</ele>
        <time>2021-10-05T16:39:32+02:00</time>
      </trkpt>
      <trkpt lat="50.12763" lon="2.83164">
        <ele>103</ele>
        <time>2021-10-05T16:39:37+02:00</time>
      </trkpt>
      <trkpt lat="50.1263" lon="2.83257">
        <ele>106</ele>
        <time>2021-10-05T16:39:42+02:00</time>
      </trkpt>
      <trkpt lat="50.12258" lon="2.83705">
        <ele>103</ele>
        <time>2021-10-05T16:39:47+02:00</time>
      </trkpt>
      <trkpt lat="50.1214" lon="2.83759">
        <ele>106</ele>
        <time>2021-10-05T16:39:52+02:00</time>
      </trkpt>
      <trkpt lat="50.12054" lon="2.83889">
        <ele>109</ele>
        <time>2021-10-05T16:39:57+02:00</time>
      </trkpt>
      <trkpt lat="50.11677" lon="2.83922">
        <ele>109</ele>
        <time>2021-10-05T16:40:02+02:00</time>
      </trkpt>
      <trkpt lat="50.11354" lon="2.83769">
        <ele>110</ele>
        <time>2021-10-05T16:40:07+02:00</time>
      </trkpt>
      <trkpt lat="50.11144" lon="2.83739">
        <ele>112</ele>
        <time>2021-10-05T16:40:12+02:00</time>
      </trkpt>
      <trkpt lat="50.10959" lon="2.83789">
        <ele>114</ele>
        <time>2021-10-05T16:40:17+02:00</time>
      </trkpt>
      <trkpt lat="50.10872" lon="2.83789">
        <ele>114</ele>
        <time>2021-10-05T16:40:22+02:00</time>
      </trkpt>
      <trkpt lat="50.10788" lon="2.83852">
        <ele>115</ele>
        <time>2021-10-05T16:40:27+02:00</time>
      </trkpt>
      <trkpt lat="50.10764" lon="2.83986">
        <ele>115</ele>
        <time>2021-10-05T16:40:32+02:00</time>
      </trkpt>
      <trkpt lat="50.10578" lon="2.83795">
        <ele>112</ele>
        <time>2021-10-05T16:40:37+02:00</time>
      </trkpt>
      <trkpt lat="50.10451" lon="2.84123">
        <ele>116</ele>
        <time>2021-10-05T16:40:42+02:00</time>
      </trkpt>
      <trkpt lat="50.10409" lon="2.84026">
        <ele>117</ele>
        <time>2021-10-05T16:40:47+02:00</time>
      </trkpt>
      <trkpt lat="50.10357" lon="2.84166">
        <ele>118</ele>
        <time>2021-10-05T16:40:52+02:00</time>
      </trkpt>
      <trkpt lat="50.10349" lon="2.8431">
        <ele>117</ele>
        <time>2021-10-05T16:40:57+02:00</time>
      </trkpt>
      <trkpt lat="50.10233" lon="2.84454">
        <ele>123</ele>
        <time>2021-10-05T16:41:02+02:00</time>
      </trkpt>
      <trkpt lat="50.10275" lon="2.84535">
        <ele>122</ele>
        <time>2021-10-05T16:41:07+02:00</time>
      </trkpt>
      <trkpt lat="50.10279" lon="2.84637">
        <ele>122</ele>
        <time>2021-10-05T16:41:12+02:00</time>
      </trkpt>
      <trkpt lat="50.10423" lon="2.84634">
        <ele>121</ele>
        <time>2021-10-05T16:41:17+02:00</time>
      </trkpt>
      <trkpt lat="50.10461" lon="2.84677">
        <ele>121</ele>
        <time>2021-10-05T16:41:22+02:00</time>
      </trkpt>
      <trkpt lat="50.10492" lon="2.84754">
        <ele>121</ele>
        <time>2021-10-05T16:41:27+02:00</time>
      </trkpt>
    </trkseg>
  </trk>
</gpx>